Arroyo Grande, California
Current Conditions -  °F | °C
As of 5:56 PM on Saturday 25 Oct 2014 (Local Time) from KSBP Reporting Station
Clear Clear  
Wind Chill: 66°   Ceiling: Unl
Heat Index: 66°   Visibility: 10mi
Dew Point: 56°   Wind: 17mph
Humidity: 70%   Direction: 310°NW
Pressure: 30.05"   Gusts: NA
Location:  35.12°N, 120.57°W
Report Text: KSBP 260056Z 31015KT 10SM CLR 19/13 A3005 RMK AO2 SLP174 T01890133
Loading
Personal Weather Stations






























Interactive Weather Map New forecast layout! Learn more

10-Day Weather Forecast

Advertisements
Track Severe Weather on mobile